Time;durP1;ratioP1;P1;durP2;ratioP2;P2;SDS_P1;SDS_P2;PMS_P1;PMS_P2;Temp;Humidity;BMP_temperature;BMP_pressure;BME280_temperature;BME280_humidity;BME280_pressure;Samples;Min_cycle;Max_cycle;Signal;HPM_P1;HPM_P2
2021/10/06 00:01:01;;;;;;;1.25;1.25;;;;;;;7.10;65.43;102577.25;1426455;27;20072;-79
2021/10/06 00:03:28;;;;;;;1.45;1.45;;;;;;;7.02;65.97;102581.59;4879887;29;20651;-78
2021/10/06 00:05:54;;;;;;;2.10;2.03;;;;;;;6.92;66.81;102577.22;4896786;29;20112;-78
2021/10/06 00:08:20;;;;;;;1.00;1.00;;;;;;;6.89;67.52;102572.00;4896409;29;20147;-79
2021/10/06 00:10:46;;;;;;;1.63;1.35;;;;;;;6.89;66.35;102581.53;4880884;29;20145;-79
2021/10/06 00:13:14;;;;;;;1.40;1.33;;;;;;;6.94;66.81;102579.81;4896709;29;20048;-80
2021/10/06 00:15:41;;;;;;;1.40;1.40;;;;;;;6.88;66.67;102575.47;4897484;29;20127;-79
2021/10/06 00:18:07;;;;;;;1.55;1.45;;;;;;;6.83;67.36;102587.56;4897837;29;20059;-80
2021/10/06 00:20:33;;;;;;;1.80;1.70;;;;;;;6.84;66.49;102584.09;4897293;29;20139;-80
2021/10/06 00:22:59;;;;;;;1.85;1.75;;;;;;;6.79;68.00;102585.81;4880857;29;20048;-79
2021/10/06 00:25:25;;;;;;;1.70;1.65;;;;;;;6.64;68.49;102590.94;4897801;29;20064;-81
2021/10/06 00:27:51;;;;;;;1.02;1.02;;;;;;;6.65;69.79;102595.25;4897821;29;20593;-80
2021/10/06 00:30:16;;;;;;;2.03;1.92;;;;;;;6.57;70.03;102590.03;4898080;29;20052;-82
2021/10/06 00:32:43;;;;;;;1.55;1.45;;;;;;;6.49;70.08;102591.72;4881378;29;20052;-80
2021/10/06 00:35:09;;;;;;;3.00;1.58;;;;;;;6.57;68.35;102584.84;4881518;29;20134;-81
2021/10/06 00:37:35;;;;;;;2.00;1.90;;;;;;;6.62;68.28;102585.72;4865492;29;20048;-78
2021/10/06 00:40:02;;;;;;;1.17;1.17;;;;;;;6.57;69.89;102589.16;4881065;29;20055;-80
2021/10/06 00:42:28;;;;;;;1.48;1.40;;;;;;;6.56;68.83;102590.03;4865084;29;20056;-79
2021/10/06 00:44:54;;;;;;;1.65;1.65;;;;;;;6.48;69.85;102594.31;4865387;29;20048;-80
2021/10/06 00:47:20;;;;;;;2.92;1.45;;;;;;;6.45;70.51;102586.47;4897858;29;20532;-80
2021/10/06 00:49:46;;;;;;;1.42;1.42;;;;;;;6.30;71.62;102595.06;4896419;29;20060;-78
2021/10/06 00:52:13;;;;;;;5.57;1.73;;;;;;;6.31;70.36;102599.38;4898118;29;20129;-79
2021/10/06 00:54:39;;;;;;;1.20;1.20;;;;;;;6.36;69.70;102599.41;4899095;29;20056;-79
2021/10/06 00:57:05;;;;;;;2.60;2.45;;;;;;;6.19;71.69;102594.97;4880737;29;20048;-80
2021/10/06 00:59:31;;;;;;;1.20;1.20;;;;;;;5.98;72.75;102587.03;4878759;29;20529;-80
2021/10/06 01:01:57;;;;;;;1.80;1.80;;;;;;;6.03;71.53;102594.84;4895435;29;20114;-81
2021/10/06 01:04:23;;;;;;;1.52;1.52;;;;;;;6.01;72.18;102597.44;4895357;29;20396;-82
2021/10/06 01:06:49;;;;;;;4.18;1.75;;;;;;;6.05;70.28;102599.16;4896693;29;20049;-80
2021/10/06 01:09:15;;;;;;;2.15;1.45;;;;;;;6.04;70.96;102594.00;4866772;29;20048;-78
2021/10/06 01:11:41;;;;;;;2.58;2.38;;;;;;;5.99;72.38;102599.13;4882350;29;20060;-78
2021/10/06 01:14:07;;;;;;;14.48;2.17;;;;;;;5.98;72.00;102591.34;4899680;29;20139;-77
2021/10/06 01:16:33;;;;;;;1.75;1.65;;;;;;;6.03;69.59;102592.25;4882664;29;20139;-79
2021/10/06 01:18:59;;;;;;;1.23;1.17;;;;;;;6.04;70.85;102597.47;4899876;29;20094;-78
2021/10/06 01:21:25;;;;;;;0.95;0.95;;;;;;;5.90;71.36;102593.00;4910114;29;20048;-79
2021/10/06 01:23:51;;;;;;;2.00;1.60;;;;;;;5.89;70.35;102592.13;4895252;29;20526;-79
2021/10/06 01:26:20;;;;;;;1.70;1.65;;;;;;;5.85;70.86;102590.34;4889633;29;20048;-79
2021/10/06 01:28:47;;;;;;;1.02;1.02;;;;;;;5.89;70.35;102606.84;4900349;29;20056;-79
2021/10/06 01:31:13;;;;;;;1.17;1.17;;;;;;;5.86;70.77;102607.66;4900240;29;20125;-80
2021/10/06 01:33:39;;;;;;;1.67;1.58;;;;;;;5.85;69.51;102599.84;4899773;29;20063;-79
2021/10/06 01:36:05;;;;;;;1.20;1.20;;;;;;;5.80;69.91;102602.38;4900072;29;20045;-80
2021/10/06 01:38:31;;;;;;;1.33;1.33;;;;;;;5.81;70.50;102609.31;4899801;29;20079;-78
2021/10/06 01:40:58;;;;;;;1.40;1.40;;;;;;;5.72;70.23;102602.34;4899570;29;20048;-79
2021/10/06 01:43:24;;;;;;;1.42;1.42;;;;;;;5.61;71.63;102603.06;4882528;29;20060;-77
2021/10/06 01:45:50;;;;;;;2.13;2.03;;;;;;;5.50;72.65;102608.16;4899616;29;20063;-80
2021/10/06 01:48:16;;;;;;;1.25;1.25;;;;;;;5.38;73.83;102613.22;4900085;29;20088;-80
2021/10/06 01:50:42;;;;;;;0.85;0.85;;;;;;;5.43;70.73;102610.69;4884196;29;20434;-80
2021/10/06 01:53:09;;;;;;;1.60;1.55;;;;;;;5.37;71.78;102610.59;4901475;29;20064;-81
2021/10/06 01:55:35;;;;;;;1.30;1.30;;;;;;;5.39;72.14;102619.25;4899772;29;20059;-79
2021/10/06 01:58:03;;;;;;;1.48;1.48;;;;;;;5.35;72.75;102630.44;4885811;29;20065;-81
2021/10/06 02:00:29;;;;;;;1.63;1.63;;;;;;;5.24;71.42;102620.81;4885289;29;20053;-80
2021/10/06 02:02:55;;;;;;;1.98;1.88;;;;;;;5.22;72.15;102616.47;4900290;29;20065;-78
2021/10/06 02:05:21;;;;;;;2.22;1.05;;;;;;;5.11;71.95;102607.72;4899102;29;20041;-79
2021/10/06 02:07:47;;;;;;;2.38;2.17;;;;;;;5.20;71.16;102624.22;4866505;29;20055;-79
2021/10/06 02:10:13;;;;;;;1.45;1.45;;;;;;;5.19;70.26;102622.50;4898910;29;20051;-79
2021/10/06 02:12:39;;;;;;;2.10;2.00;;;;;;;5.06;70.71;102610.25;4898936;29;20056;-79
2021/10/06 02:15:06;;;;;;;1.83;1.73;;;;;;;5.11;70.89;102618.94;4883030;29;20558;-79
2021/10/06 02:17:32;;;;;;;3.30;1.67;;;;;;;5.09;70.53;102632.72;4867596;29;20133;-79
2021/10/06 02:19:58;;;;;;;1.85;1.75;;;;;;;5.15;70.03;102632.78;4881090;29;20584;-79
2021/10/06 02:22:24;;;;;;;1.23;1.23;;;;;;;5.09;70.38;102620.66;4899056;29;20053;-79
2021/10/06 02:24:51;;;;;;;2.08;1.98;;;;;;;5.15;69.22;102623.31;4897928;29;20472;-78
2021/10/06 02:27:17;;;;;;;2.72;2.58;;;;;;;5.07;70.25;102627.50;4899733;29;20163;-81
2021/10/06 02:29:43;;;;;;;4.65;3.13;;;;;;;5.06;69.62;102641.34;4899093;29;20074;-77
2021/10/06 02:32:08;;;;;;;0.82;0.82;;;;;;;5.08;69.29;102638.75;4897847;29;20052;-79
2021/10/06 02:34:34;;;;;;;2.00;1.55;;;;;;;5.09;69.36;102643.97;4898223;29;20116;-79
2021/10/06 02:37:00;;;;;;;1.73;1.63;;;;;;;5.02;69.77;102638.66;4881669;29;20109;-80
2021/10/06 02:39:26;;;;;;;1.63;1.63;;;;;;;4.94;70.52;102635.97;4900564;29;20051;-80
2021/10/06 02:41:52;;;;;;;0.90;0.90;;;;;;;4.90;70.84;102641.97;4884894;29;20059;-80
2021/10/06 02:44:18;;;;;;;4.00;2.88;;;;;;;4.81;71.52;102644.44;4882587;29;20475;-80
2021/10/06 02:46:44;;;;;;;1.05;1.05;;;;;;;4.88;70.62;102650.56;4896681;29;20051;-83
2021/10/06 02:49:10;;;;;;;0.85;0.85;;;;;;;4.86;70.96;102653.13;4897724;29;20048;-80
2021/10/06 02:51:36;;;;;;;1.17;1.17;;;;;;;4.85;70.54;102656.56;4871249;29;20146;-79
2021/10/06 02:54:02;;;;;;;0.93;0.93;;;;;;;4.82;71.50;102651.34;4900003;29;20822;-78
2021/10/06 02:56:28;;;;;;;1.45;1.35;;;;;;;4.77;70.88;102650.44;4898819;29;20044;-80
2021/10/06 02:58:54;;;;;;;1.08;1.08;;;;;;;4.81;71.67;102657.38;4898280;29;20442;-79
2021/10/06 03:01:20;;;;;;;1.45;1.45;;;;;;;4.71;71.26;102656.38;4898075;29;20076;-79
2021/10/06 03:03:46;;;;;;;1.52;1.52;;;;;;;4.62;71.26;102658.84;4896298;29;20479;-80
2021/10/06 03:06:11;;;;;;;2.28;2.17;;;;;;;4.55;72.12;102662.16;4881783;29;20422;-79
2021/10/06 03:08:37;;;;;;;16.45;1.08;;;;;;;4.56;72.68;102668.22;4898623;29;20053;-77
2021/10/06 03:11:03;;;;;;;1.52;1.52;;;;;;;4.51;71.81;102654.38;4882323;29;20410;-80
2021/10/06 03:13:29;;;;;;;0.95;0.95;;;;;;;4.51;72.96;102672.47;4882161;29;20136;-81
2021/10/06 03:15:57;;;;;;;3.72;1.77;;;;;;;4.40;71.88;102667.13;4881772;29;20048;-79
2021/10/06 03:18:23;;;;;;;2.83;2.45;;;;;;;4.39;72.62;102667.09;4882291;29;20063;-81
2021/10/06 03:20:48;;;;;;;1.27;1.27;;;;;;;4.41;72.53;102657.66;4897770;29;20056;-80
2021/10/06 03:23:14;;;;;;;1.02;1.02;;;;;;;4.34;72.45;102666.16;4897908;29;20071;-78
2021/10/06 03:25:40;;;;;;;0.73;0.73;;;;;;;4.33;72.55;102670.47;4897357;29;20048;-78
2021/10/06 03:28:06;;;;;;;1.95;1.95;;;;;;;4.36;72.46;102669.63;4897558;29;20557;-79
2021/10/06 03:30:32;;;;;;;1.92;1.83;;;;;;;4.32;72.25;102658.34;4879780;29;20064;-79
2021/10/06 03:32:58;;;;;;;1.35;1.25;;;;;;;4.37;71.90;102679.13;4881591;29;20060;-80
2021/10/06 03:35:24;;;;;;;1.15;1.15;;;;;;;4.34;72.00;102681.69;4881941;29;20060;-80
2021/10/06 03:37:50;;;;;;;2.50;2.40;;;;;;;4.28;72.37;102681.56;4898638;29;20053;-79
2021/10/06 03:40:16;;;;;;;0.60;0.60;;;;;;;4.21;73.13;102680.59;4899876;29;20044;-79
2021/10/06 03:42:42;;;;;;;1.08;1.08;;;;;;;4.16;73.54;102677.06;4897976;29;20064;-79
2021/10/06 03:45:09;;;;;;;1.58;1.58;;;;;;;4.11;72.70;102671.81;4882355;29;20048;-82
2021/10/06 03:47:36;;;;;;;1.50;1.40;;;;;;;4.13;73.00;102677.00;4901925;29;20117;-84
2021/10/06 03:50:04;;;;;;;4.20;2.40;;;;;;;4.14;72.13;102677.06;4884867;29;20048;-81
2021/10/06 03:52:30;;;;;;;0.60;0.60;;;;;;;3.92;73.13;102676.66;4900563;29;20084;-80
2021/10/06 03:54:56;;;;;;;1.50;1.50;;;;;;;3.98;72.60;102672.47;4882292;29;20044;-81
2021/10/06 03:57:21;;;;;;;1.55;1.50;;;;;;;3.94;73.02;102675.81;4899374;29;20060;-80
2021/10/06 03:59:47;;;;;;;0.70;0.70;;;;;;;3.90;73.67;102675.75;4882108;29;20037;-80
2021/10/06 04:02:13;;;;;;;0.95;0.95;;;;;;;3.96;72.85;102674.13;4898593;29;20513;-80
2021/10/06 04:04:39;;;;;;;1.33;1.33;;;;;;;3.94;72.57;102681.00;4896718;29;20052;-80
2021/10/06 04:07:05;;;;;;;2.17;2.08;;;;;;;3.93;73.12;102679.25;4881072;29;20234;-80
2021/10/06 04:09:31;;;;;;;0.98;0.98;;;;;;;4.29;72.10;102683.34;4896753;29;20151;-81
2021/10/06 04:11:57;;;;;;;2.13;2.00;;;;;;;4.53;70.25;102683.69;4896142;29;20607;-79
2021/10/06 04:14:23;;;;;;;1.48;1.48;;;;;;;4.54;69.86;102690.63;4879510;29;20131;-80
2021/10/06 04:16:49;;;;;;;0.88;0.88;;;;;;;4.52;70.51;102687.13;4896702;29;20546;-80
2021/10/06 04:19:15;;;;;;;2.00;1.90;;;;;;;4.81;69.35;102696.19;4879928;29;20063;-80
2021/10/06 04:21:41;;;;;;;3.13;2.88;;;;;;;4.77;68.73;102688.38;4895025;29;20534;-81
2021/10/06 04:24:08;;;;;;;1.52;1.52;;;;;;;4.85;68.55;102692.81;4892017;29;20067;-83
2021/10/06 04:26:34;;;;;;;0.80;0.80;;;;;;;4.78;68.92;102685.78;4879996;29;20044;-81
2021/10/06 04:29:00;;;;;;;2.17;2.08;;;;;;;5.23;67.31;102690.75;4895360;29;20055;-80
2021/10/06 04:31:26;;;;;;;1.77;1.77;;;;;;;5.08;67.41;102698.28;4878593;29;20079;-80
2021/10/06 04:33:52;;;;;;;2.03;2.00;;;;;;;5.15;67.94;102693.22;4879018;29;20430;-79
2021/10/06 04:36:18;;;;;;;2.30;1.70;;;;;;;5.46;66.31;102704.84;4879018;29;20111;-80
2021/10/06 04:38:44;;;;;;;1.67;1.58;;;;;;;5.74;65.89;102706.91;4894616;29;20056;-81
2021/10/06 04:41:10;;;;;;;1.17;1.17;;;;;;;5.99;64.77;102702.84;4890964;29;20052;-82
2021/10/06 04:43:36;;;;;;;1.45;1.45;;;;;;;6.04;64.31;102706.38;4907169;29;20053;-83
2021/10/06 04:46:02;;;;;;;1.60;1.60;;;;;;;5.51;65.40;102705.75;4889234;29;20053;-83
2021/10/06 04:48:28;;;;;;;2.10;2.00;;;;;;;6.00;64.15;102706.31;4904190;29;20410;-83
2021/10/06 04:50:55;;;;;;;1.95;1.85;;;;;;;5.99;64.00;102708.03;4891539;29;20091;-83
2021/10/06 04:53:21;;;;;;;0.82;0.82;;;;;;;6.07;64.04;102709.00;4898242;29;20131;-83
2021/10/06 04:55:48;;;;;;;1.00;1.00;;;;;;;5.96;63.65;102708.00;4897551;29;20048;-84
2021/10/06 04:58:14;;;;;;;1.45;1.45;;;;;;;6.59;61.61;102714.63;4908467;29;20048;-83
2021/10/06 05:00:41;;;;;;;1.13;1.13;;;;;;;7.00;60.56;102718.34;4907134;29;20107;-83
2021/10/06 05:03:11;;;;;;;3.30;2.35;;;;;;;7.50;58.33;102694.34;4891720;29;20148;-84
2021/10/06 05:05:37;;;;;;;1.57;1.47;;;;;;;7.67;58.00;102711.75;4883475;29;20072;-84
2021/10/06 05:08:04;;;;;;;1.25;1.25;;;;;;;8.20;55.98;102709.25;4898208;29;20127;-83
2021/10/06 05:10:29;;;;;;;1.70;1.60;;;;;;;8.02;56.68;102714.41;4881549;29;20075;-82
2021/10/06 05:12:55;;;;;;;1.98;1.90;;;;;;;7.34;58.35;102722.88;4884377;29;20136;-80
2021/10/06 05:15:21;;;;;;;1.83;1.73;;;;;;;7.46;58.37;102721.22;4872285;29;20052;-79
2021/10/06 05:17:47;;;;;;;1.83;1.73;;;;;;;7.88;56.89;102716.97;4886571;29;20052;-81
2021/10/06 05:20:13;;;;;;;2.05;1.92;;;;;;;7.73;57.15;102722.16;4889382;29;20049;-80
2021/10/06 05:22:39;;;;;;;7.18;1.73;;;;;;;8.00;56.50;102720.47;4878277;29;20493;-82
2021/10/06 05:25:05;;;;;;;2.45;2.35;;;;;;;8.69;54.92;102714.47;4886789;29;20057;-81
2021/10/06 05:27:33;;;;;;;2.38;2.00;;;;;;;8.56;54.21;102717.97;4892464;29;20036;-81
2021/10/06 05:30:02;;;;;;;2.20;2.10;;;;;;;8.13;56.11;102717.91;4891221;29;20421;-82
2021/10/06 05:32:28;;;;;;;1.48;1.48;;;;;;;8.93;53.34;102709.25;4855659;29;20049;-83
2021/10/06 05:34:55;;;;;;;2.50;2.28;;;;;;;8.59;54.07;102713.63;4891978;29;20327;-81
2021/10/06 05:37:20;;;;;;;2.17;2.08;;;;;;;7.16;58.56;102725.41;4885791;29;20072;-81
2021/10/06 05:39:46;;;;;;;1.20;1.20;;;;;;;7.02;58.34;102720.97;4890749;29;20049;-82
2021/10/06 05:42:12;;;;;;;1.73;1.73;;;;;;;8.05;56.00;102727.41;4888530;29;20067;-81
2021/10/06 05:44:38;;;;;;;13.57;2.28;;;;;;;7.68;57.65;102729.09;4892016;29;20045;-81
2021/10/06 05:47:04;;;;;;;2.83;1.85;;;;;;;8.09;55.71;102720.50;4841750;29;20045;-78
2021/10/06 05:49:30;;;;;;;1.58;1.58;;;;;;;7.37;58.03;102732.41;4888674;29;20127;-81
2021/10/06 05:51:56;;;;;;;1.73;1.63;;;;;;;8.28;55.51;102733.56;4889844;29;20143;-79
2021/10/06 05:54:22;;;;;;;1.92;1.80;;;;;;;8.66;54.18;102732.72;4892925;29;20601;-83
2021/10/06 05:56:48;;;;;;;2.85;2.63;;;;;;;8.60;54.21;102727.50;4894987;29;20108;-80
2021/10/06 05:59:14;;;;;;;3.15;2.25;;;;;;;7.87;55.60;102719.59;4873136;29;20143;-81
2021/10/06 06:01:40;;;;;;;1.50;1.50;;;;;;;7.96;56.37;102735.22;4886990;29;20086;-78
2021/10/06 06:04:06;;;;;;;2.05;1.40;;;;;;;8.28;55.00;102723.16;4880484;29;20044;-81
2021/10/06 06:06:34;;;;;;;2.45;2.35;;;;;;;8.20;55.45;102735.28;4881207;29;20053;-79
2021/10/06 06:09:01;;;;;;;1.42;1.40;;;;;;;7.68;56.37;102738.63;4897924;29;20891;-80
2021/10/06 06:11:26;;;;;;;1.60;1.50;;;;;;;8.27;54.98;102744.81;4897969;29;20466;-78
2021/10/06 06:13:53;;;;;;;1.10;1.10;;;;;;;8.42;54.08;102737.91;4895952;29;20120;-78
2021/10/06 06:16:19;;;;;;;2.38;2.28;;;;;;;8.11;54.95;102740.47;4896797;29;20563;-77
2021/10/06 06:18:45;;;;;;;2.38;2.28;;;;;;;8.15;55.37;102739.59;4896840;29;20040;-77
2021/10/06 06:21:11;;;;;;;4.10;1.70;;;;;;;8.52;53.98;102747.47;4896917;29;20148;-78
2021/10/06 06:23:37;;;;;;;1.92;1.83;;;;;;;9.30;52.09;102742.13;4895607;29;20170;-78
2021/10/06 06:26:03;;;;;;;3.03;2.83;;;;;;;10.07;50.13;102733.06;4896329;29;20060;-79
2021/10/06 06:28:29;;;;;;;2.53;2.42;;;;;;;10.66;48.69;102731.78;4879374;29;20156;-78
2021/10/06 06:30:55;;;;;;;2.33;2.22;;;;;;;10.16;48.66;102740.00;4895969;29;20075;-79
2021/10/06 06:33:21;;;;;;;1.48;1.48;;;;;;;9.08;51.65;102742.19;4895474;29;20044;-80
2021/10/06 06:35:47;;;;;;;1.45;1.45;;;;;;;10.17;49.70;102740.00;4895858;29;20163;-78
2021/10/06 06:38:13;;;;;;;1.10;1.10;;;;;;;9.95;49.86;102738.34;4879429;29;20431;-77
2021/10/06 06:40:41;;;;;;;1.92;1.83;;;;;;;10.92;46.72;102727.16;4895765;29;20052;-79
2021/10/06 06:43:10;;;;;;;2.13;1.98;;;;;;;9.89;49.39;102738.38;4895944;29;20483;-81
2021/10/06 06:45:37;;;;;;;34.08;1.95;;;;;;;10.91;46.97;102739.38;4896968;29;20087;-83
2021/10/06 06:48:04;;;;;;;1.98;1.88;;;;;;;10.57;48.18;102734.47;4879601;29;20049;-80
2021/10/06 06:50:29;;;;;;;2.00;1.77;;;;;;;10.56;48.48;102738.81;4879321;29;20064;-81
2021/10/06 06:52:56;;;;;;;1.73;1.67;;;;;;;10.08;49.54;102729.56;4879104;29;20633;-79
2021/10/06 06:55:22;;;;;;;1.92;1.92;;;;;;;10.39;48.94;102736.34;4878790;29;20060;-78
2021/10/06 06:57:48;;;;;;;17.10;1.85;;;;;;;11.30;46.30;102730.22;4878668;29;20055;-80
2021/10/06 07:00:14;;;;;;;1.90;1.80;;;;;;;10.68;47.81;102737.84;4892681;29;20052;-78
2021/10/06 07:02:40;;;;;;;1.70;1.63;;;;;;;9.72;50.53;102732.38;4862780;29;20095;-78
2021/10/06 07:05:07;;;;;;;2.25;2.15;;;;;;;10.47;49.04;102738.88;4845842;29;20083;-77
2021/10/06 07:07:33;;;;;;;1.52;1.52;;;;;;;11.36;46.31;102732.75;4890328;29;20530;-78
2021/10/06 07:09:59;;;;;;;2.03;1.92;;;;;;;12.61;42.77;102734.47;4887278;29;20075;-75
2021/10/06 07:12:24;;;;;;;4.15;2.00;;;;;;;10.53;46.92;102738.84;4878846;29;20414;-76
2021/10/06 07:14:51;;;;;;;1.75;1.75;;;;;;;10.56;47.92;102735.34;4895416;29;20356;-76
2021/10/06 07:17:18;;;;;;;29.63;2.47;;;;;;;11.30;46.50;102731.97;4892844;29;20060;-78
2021/10/06 07:19:46;;;;;;;5.97;2.60;;;;;;;10.21;48.30;102743.47;4880081;29;20099;-79
2021/10/06 07:22:12;;;;;;;2.97;2.78;;;;;;;11.61;45.51;102735.09;4874985;29;20061;-78
2021/10/06 07:24:38;;;;;;;1.90;1.80;;;;;;;12.47;42.69;102734.69;4895748;29;20537;-81
2021/10/06 07:27:04;;;;;;;1.85;1.85;;;;;;;11.30;44.89;102730.22;4884556;29;20061;-82
2021/10/06 07:29:30;;;;;;;2.13;2.03;;;;;;;10.44;47.09;102737.16;4899399;29;20455;-79
2021/10/06 07:31:56;;;;;;;1.58;1.58;;;;;;;11.45;45.25;102732.66;4895300;29;20066;-79
2021/10/06 07:34:22;;;;;;;4.85;1.75;;;;;;;12.05;42.96;102737.97;4862834;29;20471;-83
2021/10/06 07:36:48;;;;;;;2.30;2.10;;;;;;;12.10;43.23;102736.19;4881959;29;20056;-80
2021/10/06 07:39:14;;;;;;;1.58;1.58;;;;;;;12.71;41.74;102729.94;4896761;29;20096;-80
2021/10/06 07:41:40;;;;;;;1.40;1.40;;;;;;;12.11;42.49;102740.50;4879677;29;20064;-79
2021/10/06 07:44:07;;;;;;;0.95;0.95;;;;;;;11.18;45.34;102743.44;4879502;29;20135;-78
2021/10/06 07:46:32;;;;;;;1.98;1.88;;;;;;;11.68;44.42;102737.59;4879957;29;20052;-79
2021/10/06 07:48:58;;;;;;;2.65;2.45;;;;;;;12.86;41.32;102724.44;4896093;29;20076;-81
2021/10/06 07:51:24;;;;;;;2.58;2.38;;;;;;;13.46;39.92;102735.50;4894950;29;20546;-79
2021/10/06 07:53:50;;;;;;;1.38;1.35;;;;;;;13.49;39.27;102725.81;4895871;29;20064;-79
2021/10/06 07:56:17;;;;;;;1.73;1.67;;;;;;;13.25;39.91;102733.34;4878827;29;20213;-78
2021/10/06 07:58:44;;;;;;;6.20;2.42;;;;;;;13.81;39.43;102721.63;4866717;29;20057;-79
2021/10/06 08:01:10;;;;;;;1.55;1.55;;;;;;;13.89;39.00;102732.84;4860880;29;20053;-80
2021/10/06 08:03:36;;;;;;;3.13;1.95;;;;;;;13.79;39.08;102741.81;4878029;29;20057;-80
2021/10/06 08:06:02;;;;;;;2.28;2.10;;;;;;;13.17;40.18;102720.34;4896553;29;20100;-80
2021/10/06 08:08:28;;;;;;;1.52;1.52;;;;;;;14.22;37.99;102734.69;4883769;29;20052;-81
2021/10/06 08:10:54;;;;;;;1.98;1.88;;;;;;;13.05;40.33;102725.81;4881408;29;20049;-80
2021/10/06 08:13:21;;;;;;;1.48;1.48;;;;;;;13.43;39.76;102733.81;4896994;29;20060;-80
2021/10/06 08:15:48;;;;;;;1.77;1.60;;;;;;;14.22;38.45;102731.19;4896645;29;20626;-79
2021/10/06 08:18:16;;;;;;;2.28;2.05;;;;;;;15.00;36.15;102729.19;4887973;29;20117;-77
2021/10/06 08:20:49;;;;;;;1.60;1.50;;;;;;;13.40;39.82;102738.25;4879148;29;20056;-78
2021/10/06 08:23:20;;;;;;;1.42;1.42;;;;;;;14.11;38.74;102731.44;4866457;29;20474;-83
2021/10/06 08:25:47;;;;;;;4.03;2.88;;;;;;;14.79;37.52;102723.66;4890332;29;20048;-80
2021/10/06 08:28:14;;;;;;;2.03;1.92;;;;;;;14.58;37.87;102731.19;4906332;29;20518;-80
2021/10/06 08:30:41;;;;;;;1.90;1.80;;;;;;;15.76;35.51;102726.16;4867878;29;20049;-79
2021/10/06 08:33:07;;;;;;;2.30;2.10;;;;;;;15.58;35.55;102710.00;4889871;29;20053;-79
2021/10/06 08:35:33;;;;;;;1.70;1.70;;;;;;;15.05;36.96;102724.66;4877834;29;20041;-76
2021/10/06 08:38:03;;;;;;;1.50;1.50;;;;;;;13.84;39.43;102729.47;4894983;29;20052;-81
2021/10/06 08:40:30;;;;;;;2.00;1.90;;;;;;;14.24;38.52;102714.47;4882683;29;20060;-81
2021/10/06 08:42:56;;;;;;;17.92;1.73;;;;;;;13.73;39.20;102724.44;4894600;29;20052;-77
2021/10/06 08:45:22;;;;;;;1.63;1.60;;;;;;;14.67;37.21;102723.97;4892696;29;20056;-80
2021/10/06 08:47:48;;;;;;;1.80;1.70;;;;;;;13.53;39.94;102724.88;4846605;29;20083;-81
2021/10/06 08:50:16;;;;;;;3.83;1.70;;;;;;;13.40;40.36;102723.38;4876388;29;20049;-79
2021/10/06 08:52:47;;;;;;;1.55;1.45;;;;;;;13.95;39.28;102716.94;4875581;29;20049;-78
2021/10/06 08:55:13;;;;;;;0.95;0.95;;;;;;;12.62;41.33;102710.00;4860432;29;20117;-79
2021/10/06 08:57:39;;;;;;;2.70;2.50;;;;;;;12.41;42.27;102724.31;4886760;29;20052;-80
2021/10/06 09:00:06;;;;;;;1.95;1.65;;;;;;;12.11;43.48;102727.41;4873046;29;20073;-80
2021/10/06 09:02:40;;;;;;;2.38;2.28;;;;;;;13.07;41.12;102718.78;4889444;29;20053;-80
2021/10/06 09:05:07;;;;;;;1.27;1.27;;;;;;;12.66;42.25;102722.16;4881389;29;20049;-82
2021/10/06 09:07:36;;;;;;;6.32;2.00;;;;;;;11.51;44.34;102713.41;4892975;29;20056;-82
2021/10/06 09:10:14;;;;;;;0.90;0.90;;;;;;;11.15;45.29;102717.34;4860039;29;20205;-82
2021/10/06 09:12:41;;;;;;;1.40;1.40;;;;;;;10.86;45.44;102720.22;4894032;29;20052;-81
2021/10/06 09:15:10;;;;;;;1.98;1.92;;;;;;;11.28;45.13;102715.44;4862246;29;20061;-80
2021/10/06 09:17:38;;;;;;;1.48;1.38;;;;;;;11.21;45.23;102714.66;4905416;29;20059;-77
2021/10/06 09:20:09;;;;;;;0.98;0.98;;;;;;;11.12;45.97;102709.53;4875269;29;20051;-82
2021/10/06 09:22:35;;;;;;;1.15;1.15;;;;;;;11.63;44.43;102702.78;4875835;29;20053;-80
2021/10/06 09:25:06;;;;;;;2.88;2.10;;;;;;;11.56;44.27;102700.25;4865537;29;20049;-81
2021/10/06 09:27:35;;;;;;;0.85;0.85;;;;;;;11.46;45.12;102705.59;4845708;29;20109;-78
2021/10/06 09:30:19;;;;;;;0.90;0.90;;;;;;;11.33;44.13;102698.78;4880293;29;20557;-81
2021/10/06 09:32:45;;;;;;;1.60;1.50;;;;;;;11.10;45.85;102707.78;4877171;29;20076;-81
2021/10/06 09:35:17;;;;;;;1.98;1.88;;;;;;;11.23;45.57;102710.25;4888687;29;20558;-81
2021/10/06 09:37:45;;;;;;;1.42;1.10;;;;;;;11.31;44.67;102690.13;4893625;29;20056;-80
2021/10/06 09:40:12;;;;;;;4.28;1.38;;;;;;;11.71;44.25;102705.31;4898646;29;20056;-82
2021/10/06 09:42:42;;;;;;;2.50;2.38;;;;;;;11.83;43.65;102702.53;4896459;29;20052;-78
2021/10/06 09:45:09;;;;;;;1.85;1.80;;;;;;;11.89;44.42;102695.44;4874901;29;20434;-77
2021/10/06 09:47:35;;;;;;;1.88;1.17;;;;;;;12.23;43.92;102687.09;4892372;29;20044;-76
2021/10/06 09:50:02;;;;;;;1.23;1.23;;;;;;;12.18;43.98;102697.63;4893775;29;20591;-77
2021/10/06 09:52:31;;;;;;;2.78;2.63;;;;;;;12.32;43.85;102689.53;4865223;29;20059;-76
2021/10/06 09:54:57;;;;;;;1.13;1.13;;;;;;;12.25;43.59;102686.16;4890833;29;20052;-77
2021/10/06 09:57:32;;;;;;;1.25;1.25;;;;;;;12.30;43.91;102686.09;4892073;29;20592;-77
2021/10/06 10:00:07;;;;;;;1.10;1.10;;;;;;;12.34;42.77;102672.91;4888143;29;20533;-77
2021/10/06 10:02:39;;;;;;;1.55;1.52;;;;;;;12.27;42.95;102692.22;4896066;29;20049;-76
2021/10/06 10:05:07;;;;;;;2.10;1.30;;;;;;;12.39;43.35;102685.94;4875133;29;20147;-76
2021/10/06 10:07:33;;;;;;;1.58;1.58;;;;;;;12.15;43.50;102687.19;4871774;29;20064;-76
2021/10/06 10:09:59;;;;;;;1.02;1.02;;;;;;;12.25;44.72;102687.91;4896285;29;20155;-78
2021/10/06 10:12:26;;;;;;;1.33;1.33;;;;;;;12.13;43.27;102688.13;4880156;29;20057;-77
2021/10/06 10:14:52;;;;;;;1.20;1.20;;;;;;;11.89;43.25;102669.28;4893005;29;20052;-76
2021/10/06 10:17:19;;;;;;;1.00;1.00;;;;;;;11.75;43.98;102675.56;4894110;29;20045;-77
2021/10/06 10:19:46;;;;;;;2.35;1.30;;;;;;;11.48;43.89;102677.66;4877102;29;20063;-77
2021/10/06 10:22:13;;;;;;;1.55;1.55;;;;;;;11.72;44.02;102673.00;4880307;29;20434;-75
2021/10/06 10:24:49;;;;;;;1.45;1.20;;;;;;;11.90;43.50;102664.91;4864605;29;20056;-76
2021/10/06 10:27:17;;;;;;;2.33;2.13;;;;;;;12.34;42.97;102661.56;4879607;29;20503;-77
2021/10/06 10:29:47;;;;;;;1.38;1.38;;;;;;;12.27;42.71;102660.78;4879539;29;20104;-77
2021/10/06 10:32:18;;;;;;;1.27;1.25;;;;;;;12.49;43.12;102671.78;4895728;29;20193;-77
2021/10/06 10:34:58;;;;;;;0.70;0.70;;;;;;;12.01;43.24;102668.19;4876168;29;20059;-76
2021/10/06 10:37:48;;;;;;;1.17;1.17;;;;;;;12.02;43.36;102660.34;4877487;29;20053;-77
2021/10/06 10:40:33;;;;;;;4.68;1.00;;;;;;;11.83;43.43;102656.28;4893666;29;20534;-77
2021/10/06 10:43:01;;;;;;;1.60;1.50;;;;;;;11.89;43.28;102652.69;4879258;29;20063;-79
2021/10/06 10:45:33;;;;;;;1.98;1.88;;;;;;;12.24;42.55;102655.59;4881911;29;20060;-80
2021/10/06 10:48:00;;;;;;;1.48;1.48;;;;;;;11.95;43.50;102657.81;4897455;29;20084;-77
2021/10/06 10:50:40;;;;;;;2.30;1.33;;;;;;;12.01;42.95;102655.09;4864234;29;20442;-78
2021/10/06 10:53:07;;;;;;;3.80;2.22;;;;;;;12.22;42.80;102646.06;4896763;29;20056;-77
2021/10/06 10:56:03;;;;;;;1.83;1.73;;;;;;;12.53;43.11;102647.25;4879483;29;20056;-76
2021/10/06 10:58:30;;;;;;;3.47;1.70;;;;;;;12.60;42.12;102655.88;4876378;29;20055;-76
2021/10/06 11:01:00;;;;;;;1.10;1.00;;;;;;;11.93;42.97;102650.00;4895435;29;20434;-75
2021/10/06 11:03:27;;;;;;;6.22;1.60;;;;;;;11.83;43.59;102652.78;4878869;29;20146;-76
2021/10/06 11:05:53;;;;;;;1.30;1.30;;;;;;;11.73;43.28;102645.97;4895659;29;20519;-75
2021/10/06 11:08:41;;;;;;;1.33;1.33;;;;;;;11.90;43.35;102641.34;4895812;29;20480;-76
2021/10/06 11:11:11;;;;;;;1.27;1.02;;;;;;;12.33;42.34;102642.38;4881288;29;20068;-77
2021/10/06 11:13:40;;;;;;;1.80;1.70;;;;;;;12.50;42.36;102640.28;4895825;29;20653;-78
2021/10/06 11:16:06;;;;;;;1.63;1.52;;;;;;;12.27;42.00;102637.22;4895757;29;20851;-76
2021/10/06 11:18:41;;;;;;;1.08;1.08;;;;;;;12.08;42.82;102634.94;4879202;29;20055;-75
2021/10/06 11:21:07;;;;;;;1.33;1.33;;;;;;;12.14;42.66;102640.94;4894983;29;20052;-77
2021/10/06 11:23:36;;;;;;;1.58;1.58;;;;;;;12.07;42.84;102639.31;4895433;29;20052;-77
2021/10/06 11:26:21;;;;;;;0.75;0.75;;;;;;;11.91;43.65;102636.06;4895386;29;20479;-77
2021/10/06 11:28:51;;;;;;;7.53;2.63;;;;;;;12.11;42.28;102638.38;4895755;29;20060;-78